This is the latest recevied weather packets stored in our database for station/object VE4GLS. If no packets are shown the sender has not sent any weather packets the latest 1 day(s).
| Time | Temp. | Humidity | Pressure | Rain* | Wind** | Luminosity | Snow |
|---|---|---|---|---|---|---|---|
| 1836274820 | 15° C | 99% | 1012.4 hPa | 0.25 mm | 0.45 m/s, 74° | - | - |
| 1836274400 | 15° C | 99% | 1012.4 hPa | 0.25 mm | 0.89 m/s, 75° | - | - |
| 1836274250 | 15° C | 99% | 1012.4 hPa | 0.25 mm | 0.45 m/s, 74° | - | - |
| 1836273920 | 15° C | 99% | 1012.4 hPa | 0 mm | 0.89 m/s, 72° | - | - |
| 1778054182 | -2.22° C | 81% | 1013.8 hPa | 0 mm | 2.24 m/s, 280° | - | - |
| 1778053654 | -2.22° C | 82% | 1013.8 hPa | 0 mm | 2.24 m/s, 277° | - | - |
| 1778053582 | -2.22° C | 82% | 1013.8 hPa | 0 mm | 2.24 m/s, 279° | - | - |
| 1778052982 | -2.78° C | 82% | 1013.7 hPa | 0 mm | 2.24 m/s, 285° | - | - |
| 1778052754 | -2.78° C | 82% | 1013.7 hPa | 0 mm | 1.34 m/s, 286° | - | - |
| 1778052384 | -2.78° C | 82% | 1013.8 hPa | 0 mm | 2.24 m/s, 287° | - | - |
| 1778051856 | -3.33° C | 81% | 1013.8 hPa | 0 mm | 2.24 m/s, 284° | - | - |
| 1778051783 | -3.33° C | 81% | 1013.8 hPa | 0 mm | 2.24 m/s, 287° | - | - |
| 1778051183 | -3.33° C | 79% | 1013.9 hPa | 0 mm | 2.24 m/s, 280° | - | - |
| 1778050955 | -3.33° C | 79% | 1013.8 hPa | 0 mm | 2.68 m/s, 277° | - | - |
| 1778050583 | -3.33° C | 78% | 1013.9 hPa | 0 mm | 2.24 m/s, 281° | - | - |
| 1778050055 | -2.78° C | 77% | 1013.9 hPa | 0 mm | 2.68 m/s, 280° | - | - |
| 1778049983 | -2.78° C | 77% | 1013.9 hPa | 0 mm | 2.24 m/s, 284° | - | - |
| 1778049383 | -2.78° C | 76% | 1013.9 hPa | 0 mm | 1.34 m/s, 279° | - | - |
| 1778049155 | -2.22° C | 75% | 1013.9 hPa | 0 mm | 0.89 m/s, 281° | - | - |
| 1778048782 | -2.22° C | 76% | 1013.9 hPa | 0 mm | 1.34 m/s, 283° | - | - |
| 1778048254 | -1.67° C | 76% | 1013.9 hPa | 0 mm | 2.68 m/s, 301° | - | - |
| 1778048182 | -1.67° C | 76% | 1013.9 hPa | 0 mm | 2.24 m/s, 294° | - | - |
| 1778047582 | -1.67° C | 75% | 1013.9 hPa | 0 mm | 2.68 m/s, 293° | - | - |
| 1778047354 | -1.67° C | 75% | 1013.9 hPa | 0 mm | 2.68 m/s, 298° | - | - |
| 1778046982 | -1.11° C | 74% | 1013.9 hPa | 0 mm | 3.13 m/s, 301° | - | - |
* Rain latest hour (hover to see other rain measurements)
** Current wind speed in m/s (hover to see current wind gust speed)